createdAt,value
2022-08-12T03:47:28.514Z,86.80
2022-08-12T03:50:14.110Z,86.10
2022-08-12T03:52:59.818Z,86.10
2022-08-12T03:55:45.286Z,86.90
2022-08-12T03:58:31.314Z,86.70
2022-08-12T04:00:58.707Z,88.00
2022-08-12T04:03:44.351Z,87.90
2022-08-12T04:06:11.228Z,87.60
2022-08-12T04:08:39.629Z,87.30
2022-08-12T04:11:28.019Z,87.90
2022-08-12T04:14:11.648Z,87.20
2022-08-12T04:16:39.647Z,86.10
2022-08-12T04:19:07.813Z,86.30
2022-08-12T04:21:36.194Z,86.80
2022-08-12T04:24:05.042Z,87.00
2022-08-12T04:26:32.291Z,86.20
2022-08-12T04:28:59.522Z,86.60
2022-08-12T04:31:34.436Z,87.30
2022-08-12T04:34:02.888Z,87.10
2022-08-12T04:36:30.995Z,86.90
2022-08-12T04:39:01.482Z,87.40
2022-08-12T04:41:29.587Z,86.80
2022-08-12T04:44:02.242Z,86.80
2022-08-12T04:46:33.566Z,86.90
2022-08-12T04:49:02.790Z,87.50
2022-08-12T04:51:30.414Z,88.80
2022-08-12T04:53:57.422Z,88.80
2022-08-12T04:56:24.199Z,89.40
2022-08-12T04:58:52.787Z,89.70
2022-08-12T05:01:20.135Z,90.10
2022-08-12T05:03:49.167Z,89.90
2022-08-12T05:06:26.408Z,89.80
2022-08-12T05:08:55.130Z,89.80
2022-08-12T05:11:23.830Z,90.00
2022-08-12T05:13:52.380Z,90.40
2022-08-12T05:16:19.226Z,90.50
2022-08-12T05:18:56.917Z,90.10
2022-08-12T05:21:23.696Z,90.00
2022-08-12T05:23:50.723Z,90.20
2022-08-12T05:26:17.482Z,90.30
2022-08-12T05:28:44.301Z,90.50
2022-08-12T05:31:11.185Z,90.30
2022-08-12T05:33:40.019Z,90.40
2022-08-12T05:36:13.814Z,90.10
2022-08-12T05:38:57.360Z,89.50
2022-08-12T05:41:26.736Z,89.20
2022-08-12T05:44:00.723Z,88.70
2022-08-12T05:46:29.369Z,88.90
2022-08-12T05:48:56.804Z,90.10
2022-08-12T05:51:24.864Z,90.40
2022-08-12T05:54:00.182Z,90.50
2022-08-12T05:56:29.655Z,91.20
2022-08-12T05:58:58.147Z,90.60
2022-08-12T06:02:10.591Z,90.20
2022-08-12T06:04:14.259Z,90.00
2022-08-12T06:06:43.727Z,88.90
2022-08-12T06:09:11.406Z,87.90
2022-08-12T06:11:41.526Z,87.60
2022-08-12T06:14:28.362Z,87.80
2022-08-12T06:16:57.444Z,87.00
2022-08-12T06:19:25.833Z,86.60
2022-08-12T06:22:12.607Z,86.00
2022-08-12T06:24:39.448Z,85.70
2022-08-12T06:27:06.258Z,85.70
2022-08-12T06:30:06.931Z,84.80
2022-08-12T06:32:21.581Z,84.60
2022-08-12T06:35:27.286Z,84.20
2022-08-12T06:37:45.882Z,83.80
2022-08-12T06:40:42.158Z,84.00
2022-08-12T06:43:09.128Z,83.30
2022-08-12T06:45:45.116Z,82.90
2022-08-12T06:48:12.654Z,82.60
2022-08-12T06:50:40.235Z,82.30
2022-08-12T06:53:09.309Z,82.10
2022-08-12T06:55:36.276Z,80.50
2022-08-12T06:58:10.413Z,81.30
2022-08-12T07:00:38.023Z,81.30
2022-08-12T07:03:22.497Z,80.90
2022-08-12T07:05:50.823Z,80.50
2022-08-12T07:08:18.336Z,80.00
2022-08-12T07:10:53.431Z,78.90
2022-08-12T07:13:20.631Z,78.90
2022-08-12T07:15:47.460Z,77.90
2022-08-12T07:18:17.804Z,76.60
2022-08-12T07:20:52.829Z,76.70
2022-08-12T07:23:20.671Z,76.00
2022-08-12T07:25:47.563Z,75.30
2022-08-12T07:28:17.209Z,75.60
2022-08-12T07:30:46.510Z,75.30
2022-08-12T07:33:13.642Z,74.20
2022-08-12T07:35:47.991Z,73.90
2022-08-12T07:38:33.493Z,73.40
2022-08-12T07:41:02.010Z,72.30
2022-08-12T07:43:30.931Z,71.50
2022-08-12T07:45:58.264Z,71.50
2022-08-12T07:48:25.780Z,71.20
2022-08-12T07:50:53.266Z,71.40
2022-08-12T07:53:21.440Z,69.50
2022-08-12T07:55:48.215Z,69.00
2022-08-12T07:58:15.199Z,69.10
2022-08-12T08:00:42.723Z,69.90
2022-08-12T08:03:09.538Z,69.00
2022-08-12T08:05:46.598Z,67.10
2022-08-12T08:08:15.410Z,67.10
2022-08-12T08:10:43.343Z,66.30
2022-08-12T08:13:11.888Z,65.90
2022-08-12T08:18:27.830Z,65.80
2022-08-12T08:20:56.196Z,65.40
2022-08-12T08:23:29.415Z,64.50
2022-08-12T08:26:02.113Z,62.40
2022-08-12T08:28:29.317Z,61.80
2022-08-12T08:30:56.143Z,60.70
2022-08-12T08:34:09.720Z,60.20
2022-08-12T08:36:16.381Z,59.90
2022-08-12T08:38:53.258Z,60.10
2022-08-12T08:42:13.804Z,58.30
2022-08-12T08:44:31.971Z,57.90
2022-08-12T08:47:01.198Z,57.40
2022-08-12T08:49:27.999Z,56.00
2022-08-12T08:51:54.747Z,54.30
2022-08-12T08:54:21.584Z,53.80
2022-08-12T08:56:51.060Z,52.90
2022-08-12T08:59:19.323Z,51.90
2022-08-12T09:01:48.747Z,50.90
2022-08-12T09:05:08.902Z,50.40
2022-08-12T09:10:02.911Z,47.70
2022-08-12T09:12:54.950Z,46.10
2022-08-12T09:15:35.410Z,43.30
2022-08-12T09:18:05.870Z,42.50
2022-08-12T09:20:38.308Z,41.50
2022-08-12T09:23:08.038Z,40.10
2022-08-12T09:25:54.475Z,39.20
2022-08-12T09:28:31.414Z,38.40
2022-08-12T09:30:59.820Z,37.60
2022-08-12T09:34:26.004Z,37.70
2022-08-12T09:36:31.331Z,36.70
2022-08-12T09:40:02.355Z,35.70
2022-08-12T09:42:38.102Z,35.70
2022-08-12T09:45:23.581Z,34.70
2022-08-12T09:47:59.315Z,34.80
2022-08-12T09:50:27.290Z,34.00
2022-08-12T09:53:16.161Z,33.40
2022-08-12T09:56:05.496Z,32.10
2022-08-12T09:58:56.725Z,31.40
2022-08-12T10:01:24.410Z,32.50
2022-08-12T10:04:03.697Z,32.50
2022-08-12T10:06:35.906Z,32.10
2022-08-12T10:09:08.095Z,30.70
2022-08-12T10:12:12.064Z,29.90
2022-08-12T10:14:50.616Z,29.90
2022-08-12T10:17:22.848Z,29.70
2022-08-12T10:19:52.881Z,28.70
2022-08-12T10:22:39.347Z,28.30
2022-08-12T10:26:35.172Z,28.10
2022-08-12T10:28:33.678Z,27.80
2022-08-12T10:31:01.491Z,28.30
2022-08-12T10:33:31.453Z,27.70
2022-08-12T10:36:00.276Z,27.60
2022-08-12T10:38:37.963Z,27.90
2022-08-12T10:41:58.766Z,27.30
2022-08-12T10:44:16.990Z,28.00
2022-08-12T10:46:49.180Z,27.90
2022-08-12T10:50:03.422Z,27.30
2022-08-12T10:52:32.925Z,26.80
2022-08-12T10:54:55.785Z,26.50
2022-08-12T10:58:12.643Z,25.60
2022-08-12T11:00:34.398Z,25.80
2022-08-12T11:04:26.954Z,26.50
2022-08-12T11:07:10.018Z,27.20
2022-08-12T11:08:42.169Z,27.50
2022-08-12T11:11:13.991Z,27.80
2022-08-12T11:13:48.649Z,27.20
2022-08-12T11:16:23.139Z,27.40
2022-08-12T11:18:55.206Z,27.10
2022-08-12T11:21:51.288Z,26.70
2022-08-12T11:24:30.900Z,27.20
2022-08-12T11:26:58.859Z,27.00
2022-08-12T11:29:28.093Z,27.20
2022-08-12T11:32:14.876Z,27.70
2022-08-12T11:34:52.685Z,27.90
2022-08-12T11:37:26.294Z,27.90
2022-08-12T11:42:37.372Z,27.00
2022-08-12T11:45:11.362Z,26.60
2022-08-12T11:47:40.466Z,26.80
2022-08-12T11:50:07.941Z,26.80
2022-08-12T11:52:55.080Z,26.70
2022-08-12T11:55:24.323Z,26.90
2022-08-12T11:58:14.353Z,26.90
2022-08-12T12:03:46.309Z,27.30
2022-08-12T12:06:17.551Z,27.20
2022-08-12T12:08:50.099Z,28.10
2022-08-12T12:11:17.638Z,28.80
2022-08-12T12:14:06.893Z,29.30
2022-08-12T12:16:31.786Z,29.70
2022-08-12T12:19:00.501Z,29.70
2022-08-12T12:21:48.604Z,29.70
2022-08-12T12:24:22.032Z,29.20
2022-08-12T12:26:59.669Z,29.40
2022-08-12T12:30:13.683Z,30.30
2022-08-12T12:32:19.376Z,30.70
2022-08-12T12:35:14.003Z,30.00
2022-08-12T12:38:11.740Z,30.40
2022-08-12T12:40:41.821Z,30.40
2022-08-12T12:43:12.285Z,31.00
2022-08-12T12:45:44.124Z,31.10
2022-08-12T12:48:15.309Z,31.00
2022-08-12T12:51:12.203Z,31.00
2022-08-12T12:54:06.982Z,31.10
2022-08-12T12:56:34.598Z,31.20
2022-08-12T12:59:05.928Z,31.30
2022-08-12T13:01:38.355Z,31.40
2022-08-12T13:04:12.071Z,30.90
2022-08-12T13:06:41.932Z,30.50
2022-08-12T13:09:13.171Z,30.90
2022-08-12T13:11:41.884Z,31.40
2022-08-12T13:14:29.571Z,31.80
2022-08-12T13:17:03.622Z,31.30
2022-08-12T13:19:44.494Z,31.90
2022-08-12T13:22:18.183Z,31.80
2022-08-12T13:24:45.719Z,32.60
2022-08-12T13:27:20.857Z,32.20
2022-08-12T13:29:49.006Z,32.40
2022-08-12T13:32:30.906Z,31.50
2022-08-12T13:35:03.844Z,31.30
2022-08-12T13:37:43.823Z,31.20
2022-08-12T13:40:18.368Z,30.90
2022-08-12T13:42:46.344Z,31.30
2022-08-12T13:45:13.708Z,30.70
2022-08-12T13:47:59.974Z,30.90
2022-08-12T13:50:32.693Z,30.80
2022-08-12T13:53:23.371Z,30.20
2022-08-12T13:55:59.313Z,30.30
2022-08-12T13:58:28.243Z,30.50
2022-08-12T14:00:58.125Z,30.00
2022-08-12T14:03:28.663Z,30.20
2022-08-12T14:06:15.527Z,30.50
2022-08-12T14:08:43.313Z,30.20
2022-08-12T14:11:12.543Z,30.20
2022-08-12T14:14:05.700Z,30.40
2022-08-12T14:16:48.641Z,30.80
2022-08-12T14:19:21.994Z,30.00
2022-08-12T14:22:00.594Z,30.40
2022-08-12T14:24:35.055Z,31.00
2022-08-12T14:27:02.775Z,31.10
2022-08-12T14:29:56.132Z,31.50
2022-08-12T14:32:18.034Z,31.30
2022-08-12T14:34:49.096Z,31.00
2022-08-12T14:37:57.363Z,30.90
2022-08-12T14:40:04.099Z,31.70
2022-08-12T14:42:30.900Z,32.20
2022-08-12T14:45:01.110Z,32.50
2022-08-12T14:47:35.492Z,32.50
2022-08-12T14:50:57.447Z,32.50
2022-08-12T14:58:31.915Z,31.70
2022-08-12T15:01:19.773Z,31.70
2022-08-12T15:03:52.386Z,32.40
2022-08-12T15:06:44.261Z,31.70
2022-08-12T15:09:12.219Z,31.40
2022-08-12T15:11:55.776Z,31.90
2022-08-12T15:14:30.193Z,32.00
2022-08-12T15:17:00.105Z,32.80
2022-08-12T15:20:28.634Z,32.90
2022-08-12T15:22:35.375Z,32.80
2022-08-12T15:25:07.560Z,33.00
2022-08-12T15:28:20.535Z,33.60
2022-08-12T15:30:30.330Z,33.30
2022-08-12T15:32:57.928Z,33.70
2022-08-12T15:35:31.222Z,34.00
2022-08-12T15:38:18.709Z,34.30
2022-08-12T15:40:50.369Z,34.00
2022-08-12T15:44:14.195Z,33.60
2022-08-12T15:46:15.986Z,33.50
2022-08-12T15:48:46.669Z,33.70
2022-08-12T15:51:58.920Z,33.60
2022-08-12T15:54:35.211Z,33.90
2022-08-12T15:57:07.625Z,33.20
2022-08-12T16:00:00.251Z,33.30
2022-08-12T16:02:23.256Z,34.10
2022-08-12T16:04:54.163Z,34.00
2022-08-12T16:07:30.026Z,34.60
2022-08-12T16:10:07.026Z,34.30
2022-08-12T16:12:43.267Z,35.00
2022-08-12T16:15:13.356Z,35.10
2022-08-12T16:18:19.010Z,35.50
2022-08-12T16:20:33.496Z,35.90
2022-08-12T16:23:36.184Z,36.60
2022-08-12T16:26:06.392Z,37.50
2022-08-12T16:28:47.531Z,37.90
2022-08-12T16:31:22.502Z,38.40
2022-08-12T16:33:59.001Z,38.70
2022-08-12T16:36:30.882Z,39.30
2022-08-12T16:39:01.371Z,39.40
2022-08-12T16:41:37.927Z,39.40
2022-08-12T16:44:06.655Z,39.10
2022-08-12T16:46:36.147Z,38.80
2022-08-12T16:49:08.968Z,39.60
2022-08-12T16:51:46.371Z,38.70
2022-08-12T16:54:26.509Z,38.50
2022-08-12T16:57:05.693Z,38.80
2022-08-12T16:59:54.620Z,38.60
2022-08-12T17:02:33.345Z,39.00
2022-08-12T17:05:03.211Z,38.90
2022-08-12T17:07:36.531Z,38.80
2022-08-12T17:10:13.544Z,38.90
2022-08-12T17:12:44.990Z,39.40
2022-08-12T17:15:50.904Z,39.50
2022-08-12T17:18:15.357Z,39.40
2022-08-12T17:20:49.230Z,39.50
2022-08-12T17:23:19.328Z,39.50
2022-08-12T17:25:50.476Z,39.60
2022-08-12T17:28:18.454Z,40.00
2022-08-12T17:30:57.485Z,40.20
2022-08-12T17:33:33.647Z,39.90
2022-08-12T17:36:03.135Z,40.50
2022-08-12T17:38:30.003Z,40.30
2022-08-12T17:40:58.153Z,40.70
2022-08-12T17:43:54.763Z,41.20
2022-08-12T17:46:23.662Z,41.10
2022-08-12T17:48:54.914Z,41.40
2022-08-12T17:51:24.587Z,41.80
2022-08-12T17:54:10.708Z,40.60
2022-08-12T17:56:40.637Z,40.90
2022-08-12T17:59:12.614Z,41.50
2022-08-12T18:01:45.540Z,42.10
2022-08-12T18:04:23.077Z,42.60
2022-08-12T18:07:02.098Z,42.80
2022-08-12T18:09:32.259Z,43.30
2022-08-12T18:12:24.606Z,43.50
2022-08-12T18:15:02.222Z,43.80
2022-08-12T18:17:33.242Z,43.70
2022-08-12T18:20:07.348Z,44.10
2022-08-12T18:22:35.875Z,44.30
2022-08-12T18:25:06.750Z,44.40
2022-08-12T18:27:43.839Z,45.00
2022-08-12T18:30:20.904Z,45.30
2022-08-12T18:33:04.666Z,45.20
2022-08-12T18:35:46.398Z,45.30
2022-08-12T18:38:16.738Z,45.80
2022-08-12T18:41:04.244Z,45.80
2022-08-12T18:43:57.433Z,46.60
2022-08-12T18:46:29.868Z,47.70
2022-08-12T18:48:57.572Z,48.20
2022-08-12T18:52:02.443Z,48.30
2022-08-12T18:54:35.160Z,48.70
2022-08-12T18:57:19.868Z,48.80
2022-08-12T19:00:02.096Z,49.80
2022-08-12T19:02:36.340Z,50.50
2022-08-12T19:05:11.383Z,50.90
2022-08-12T19:08:00.337Z,51.40
2022-08-12T19:10:30.877Z,52.50
2022-08-12T19:13:23.898Z,52.40
2022-08-12T19:15:58.053Z,52.50
2022-08-12T19:18:29.807Z,53.00
2022-08-12T19:21:00.445Z,53.40
2022-08-12T19:23:34.963Z,53.40
2022-08-12T19:26:05.256Z,53.90
2022-08-12T19:28:38.634Z,54.80
2022-08-12T19:31:55.414Z,54.60
2022-08-12T19:35:54.040Z,55.30
2022-08-12T19:38:03.546Z,55.00
2022-08-12T19:40:35.246Z,55.60
2022-08-12T19:43:19.116Z,56.50
2022-08-12T19:45:54.387Z,56.40
2022-08-12T19:48:27.463Z,56.40
2022-08-12T19:50:55.610Z,56.80
2022-08-12T19:53:24.469Z,57.30
2022-08-12T19:55:56.042Z,57.20
2022-08-12T19:58:24.653Z,57.20
2022-08-12T20:00:55.818Z,57.70
2022-08-12T20:03:38.297Z,57.80
2022-08-12T20:06:14.105Z,58.10
2022-08-12T20:08:55.589Z,57.70
2022-08-12T20:12:10.249Z,58.20
2022-08-12T20:14:14.109Z,57.70
2022-08-12T20:16:53.038Z,57.80
2022-08-12T20:19:53.077Z,58.60
2022-08-12T20:22:23.520Z,58.00
2022-08-12T20:24:55.361Z,58.30
2022-08-12T20:27:29.402Z,58.50
2022-08-12T20:30:12.764Z,58.30
2022-08-12T20:32:50.814Z,59.20
2022-08-12T20:35:24.260Z,59.40
2022-08-12T20:38:06.289Z,58.50
2022-08-12T20:40:38.903Z,58.70
2022-08-12T20:43:06.650Z,58.60
2022-08-12T20:45:50.537Z,58.50
2022-08-12T20:48:18.325Z,59.00
2022-08-12T20:50:53.647Z,59.70
2022-08-12T20:53:27.801Z,59.90
2022-08-12T20:56:22.001Z,61.40
2022-08-12T20:58:57.797Z,62.80
2022-08-12T21:01:28.932Z,63.00
2022-08-12T21:04:23.254Z,62.40
2022-08-12T21:06:57.095Z,61.70
2022-08-12T21:09:45.517Z,61.30
2022-08-12T21:12:27.327Z,61.60
2022-08-12T21:15:18.182Z,61.70
2022-08-12T21:18:08.638Z,61.90
2022-08-12T21:20:35.115Z,61.60
2022-08-12T21:23:05.775Z,62.40
2022-08-12T21:25:35.898Z,62.20
2022-08-12T21:28:12.601Z,62.80
2022-08-12T21:31:10.486Z,63.00
2022-08-12T21:33:31.597Z,63.30
2022-08-12T21:36:01.007Z,63.80
2022-08-12T21:38:34.313Z,63.70
2022-08-12T21:41:06.780Z,63.10
2022-08-12T21:43:40.312Z,62.90
2022-08-12T21:46:14.799Z,62.70
2022-08-12T21:49:04.583Z,63.40
2022-08-12T21:51:49.082Z,63.90
2022-08-12T21:54:22.670Z,63.50
2022-08-12T21:56:53.731Z,64.30
2022-08-12T21:59:22.023Z,64.10
2022-08-12T22:01:49.792Z,64.70
2022-08-12T22:04:36.371Z,64.90
2022-08-12T22:07:04.438Z,64.70
2022-08-12T22:09:42.768Z,65.80
2022-08-12T22:12:29.576Z,65.30
2022-08-12T22:14:56.702Z,65.90
2022-08-12T22:17:33.885Z,65.70
2022-08-12T22:20:17.744Z,66.00
2022-08-12T22:22:56.760Z,67.50
2022-08-12T22:25:24.233Z,68.40
2022-08-12T22:28:12.364Z,67.80
2022-08-12T22:30:58.061Z,66.60
2022-08-12T22:33:24.888Z,68.20
2022-08-12T22:35:59.517Z,68.40
2022-08-12T22:38:29.644Z,68.40
2022-08-12T22:41:00.526Z,67.40
2022-08-12T22:43:59.717Z,68.00
2022-08-12T22:46:32.895Z,69.20
2022-08-12T22:48:59.797Z,68.20
2022-08-12T22:51:26.840Z,69.20
2022-08-12T22:53:56.684Z,68.50
2022-08-12T22:56:30.965Z,68.80
2022-08-12T22:59:03.091Z,69.50
2022-08-12T23:02:01.066Z,68.40
2022-08-12T23:04:28.050Z,68.80
2022-08-12T23:06:58.297Z,68.60
2022-08-12T23:09:34.746Z,68.60
2022-08-12T23:12:37.326Z,68.60
2022-08-12T23:15:13.672Z,69.30
2022-08-12T23:17:41.903Z,69.80
2022-08-12T23:20:11.031Z,69.60
2022-08-12T23:22:38.396Z,69.40
2022-08-12T23:25:05.565Z,69.50
2022-08-12T23:27:55.890Z,69.90
